createdAt,value
2023-05-14T00:01:01.425Z,4.27
2023-05-14T00:03:28.006Z,4.24
2023-05-14T00:05:54.833Z,4.20
2023-05-14T00:08:21.394Z,4.18
2023-05-14T00:10:47.942Z,4.16
2023-05-14T00:13:14.477Z,4.15
2023-05-14T00:15:41.434Z,4.13
2023-05-14T00:18:07.951Z,4.13
2023-05-14T00:20:34.463Z,4.15
2023-05-14T00:23:01.176Z,4.16
2023-05-14T00:25:27.930Z,4.15
2023-05-14T00:27:54.504Z,4.16
2023-05-14T00:30:21.113Z,4.15
2023-05-14T00:32:47.705Z,4.17
2023-05-14T00:35:14.356Z,4.16
2023-05-14T00:37:40.840Z,4.14
2023-05-14T00:40:08.145Z,4.09
2023-05-14T00:42:34.979Z,4.03
2023-05-14T00:45:01.683Z,3.99
2023-05-14T00:47:28.501Z,3.96
2023-05-14T00:49:55.647Z,3.90
2023-05-14T00:52:22.233Z,3.87
2023-05-14T00:54:49.399Z,3.85
2023-05-14T00:57:16.279Z,3.84
2023-05-14T00:59:43.005Z,3.80
2023-05-14T01:02:09.578Z,3.76
2023-05-14T01:04:36.922Z,3.75
2023-05-14T01:07:32.807Z,3.72
2023-05-14T01:10:20.240Z,3.68
2023-05-14T01:13:04.194Z,3.64
2023-05-14T01:15:35.978Z,3.61
2023-05-14T01:18:16.961Z,3.59
2023-05-14T01:20:44.770Z,3.57
2023-05-14T01:23:11.364Z,3.54
2023-05-14T01:25:38.137Z,3.51
2023-05-14T01:28:19.255Z,3.51
2023-05-14T01:30:57.252Z,3.49
2023-05-14T01:33:27.611Z,3.47
2023-05-14T01:35:55.657Z,3.50
2023-05-14T01:40:51.323Z,3.60
2023-05-14T01:43:19.296Z,3.60
2023-05-14T01:45:46.217Z,3.59
2023-05-14T01:48:12.816Z,3.59
2023-05-14T01:50:39.489Z,3.54
2023-05-14T01:53:06.003Z,3.50
2023-05-14T01:55:32.838Z,3.46
2023-05-14T01:57:59.287Z,3.41
2023-05-14T02:00:26.314Z,3.35
2023-05-14T02:02:53.682Z,3.31
2023-05-14T02:05:20.407Z,3.28
2023-05-14T02:07:46.933Z,3.24
2023-05-14T02:10:13.825Z,3.24
2023-05-14T02:12:40.756Z,3.21
2023-05-14T02:15:08.418Z,3.19
2023-05-14T02:17:35.034Z,3.18
2023-05-14T02:20:01.558Z,3.17
2023-05-14T02:22:28.028Z,3.14
2023-05-14T02:24:54.529Z,3.10
2023-05-14T02:27:20.978Z,3.08
2023-05-14T02:29:47.576Z,3.06
2023-05-14T02:32:14.216Z,3.04
2023-05-14T02:34:40.700Z,3.03
2023-05-14T02:37:07.385Z,3.01
2023-05-14T02:39:33.969Z,3.01
2023-05-14T02:42:00.512Z,2.99
2023-05-14T02:44:27.188Z,2.96
2023-05-14T02:46:53.829Z,2.93
2023-05-14T02:49:20.550Z,2.93
2023-05-14T02:51:46.980Z,2.92
2023-05-14T02:54:13.754Z,2.91
2023-05-14T02:56:40.480Z,2.91
2023-05-14T02:59:07.576Z,2.90
2023-05-14T03:01:34.684Z,2.89
2023-05-14T03:04:02.038Z,2.87
2023-05-14T03:06:28.746Z,2.86
2023-05-14T03:08:55.206Z,2.87
2023-05-14T03:11:21.849Z,2.92
2023-05-14T03:13:48.551Z,2.96
2023-05-14T03:16:15.094Z,2.99
2023-05-14T03:18:41.660Z,3.01
2023-05-14T03:21:08.236Z,3.07
2023-05-14T03:23:35.564Z,3.12
2023-05-14T03:26:02.370Z,3.16
2023-05-14T03:28:29.097Z,3.21
2023-05-14T03:30:55.806Z,3.29
2023-05-14T03:33:22.694Z,3.37
2023-05-14T03:35:49.211Z,3.49
2023-05-14T03:38:15.970Z,3.72
2023-05-14T03:40:42.514Z,3.97
2023-05-14T03:43:09.178Z,4.23
2023-05-14T03:45:36.357Z,4.54
2023-05-14T03:48:03.432Z,4.86
2023-05-14T03:50:30.316Z,5.17
2023-05-14T03:52:57.099Z,5.46
2023-05-14T03:55:23.792Z,5.78
2023-05-14T03:57:50.478Z,6.07
2023-05-14T04:00:17.116Z,6.26
2023-05-14T04:02:43.843Z,6.43
2023-05-14T04:05:10.479Z,6.64
2023-05-14T04:07:37.003Z,6.91
2023-05-14T04:10:04.756Z,7.23
2023-05-14T04:12:31.593Z,7.61
2023-05-14T04:14:58.497Z,7.86
2023-05-14T04:17:25.222Z,8.02
2023-05-14T04:19:51.739Z,8.14
2023-05-14T04:22:18.235Z,8.23
2023-05-14T04:24:44.721Z,8.36
2023-05-14T04:27:11.148Z,8.70
2023-05-14T04:29:37.683Z,9.22
2023-05-14T04:32:04.892Z,9.65
2023-05-14T04:34:32.016Z,10.08
2023-05-14T04:36:58.767Z,10.47
2023-05-14T04:39:25.267Z,10.85
2023-05-14T04:41:51.691Z,11.23
2023-05-14T04:44:18.176Z,11.47
2023-05-14T04:46:44.620Z,11.86
2023-05-14T04:49:11.167Z,12.14
2023-05-14T04:51:37.634Z,12.27
2023-05-14T04:54:04.313Z,12.33
2023-05-14T04:56:30.826Z,12.13
2023-05-14T04:58:57.362Z,12.04
2023-05-14T05:01:23.893Z,12.10
2023-05-14T05:03:50.405Z,12.32
2023-05-14T05:06:16.923Z,12.94
2023-05-14T05:08:43.552Z,13.51
2023-05-14T05:11:09.990Z,14.03
2023-05-14T05:13:36.546Z,14.48
2023-05-14T05:16:03.113Z,14.52
2023-05-14T05:18:29.772Z,14.48
2023-05-14T05:20:56.646Z,14.79
2023-05-14T05:23:23.064Z,14.93
2023-05-14T05:25:50.616Z,14.81
2023-05-14T05:28:17.128Z,14.68
2023-05-14T05:30:43.658Z,14.51
2023-05-14T05:33:10.254Z,14.17
2023-05-14T05:35:36.784Z,13.99
2023-05-14T05:38:03.325Z,13.99
2023-05-14T05:40:29.827Z,14.29
2023-05-14T05:42:56.313Z,14.47
2023-05-14T05:45:22.841Z,14.96
2023-05-14T05:47:49.307Z,15.48
2023-05-14T05:50:16.173Z,15.87
2023-05-14T05:52:43.229Z,16.00
2023-05-14T05:55:10.225Z,16.41
2023-05-14T05:57:36.660Z,16.72
2023-05-14T06:00:03.635Z,16.93
2023-05-14T06:02:30.185Z,17.10
2023-05-14T06:04:56.991Z,17.43
2023-05-14T06:07:23.658Z,17.39
2023-05-14T06:09:50.247Z,17.14
2023-05-14T06:12:16.801Z,17.04
2023-05-14T06:14:43.249Z,17.09
2023-05-14T06:17:09.711Z,17.34
2023-05-14T06:19:36.175Z,17.49
2023-05-14T06:22:02.693Z,17.18
2023-05-14T06:24:29.104Z,16.99
2023-05-14T06:26:55.686Z,16.88
2023-05-14T06:29:22.254Z,16.58
2023-05-14T06:31:48.879Z,16.63
2023-05-14T06:34:15.426Z,16.73
2023-05-14T06:36:42.050Z,16.77
2023-05-14T06:39:08.565Z,17.13
2023-05-14T06:41:35.116Z,17.34
2023-05-14T06:44:01.548Z,17.22
2023-05-14T06:46:27.988Z,17.54
2023-05-14T06:48:55.694Z,18.06
2023-05-14T06:51:23.342Z,18.57
2023-05-14T06:53:49.765Z,18.73
2023-05-14T06:56:16.203Z,18.93
2023-05-14T06:58:42.601Z,18.97
2023-05-14T07:01:09.179Z,18.73
2023-05-14T07:03:35.707Z,18.62
2023-05-14T07:06:02.258Z,18.40
2023-05-14T07:08:28.948Z,18.33
2023-05-14T07:10:55.414Z,18.53
2023-05-14T07:13:21.880Z,18.88
2023-05-14T07:15:48.424Z,19.29
2023-05-14T07:18:15.119Z,19.63
2023-05-14T07:20:41.534Z,19.46
2023-05-14T07:23:08.043Z,19.47
2023-05-14T07:25:34.516Z,19.78
2023-05-14T07:28:00.927Z,20.12
2023-05-14T07:30:27.376Z,20.46
2023-05-14T07:32:54.039Z,21.02
2023-05-14T07:35:20.806Z,21.47
2023-05-14T07:37:47.459Z,21.87
2023-05-14T07:40:14.060Z,21.84
2023-05-14T07:42:40.794Z,21.88
2023-05-14T07:45:08.417Z,21.63
2023-05-14T07:47:35.152Z,21.24
2023-05-14T07:50:02.012Z,21.41
2023-05-14T07:52:28.473Z,21.81
2023-05-14T07:54:55.034Z,21.54
2023-05-14T07:57:21.543Z,21.31
2023-05-14T07:59:48.715Z,21.08
2023-05-14T08:02:15.668Z,20.83
2023-05-14T08:04:42.220Z,20.46
2023-05-14T08:07:08.767Z,20.47
2023-05-14T08:09:35.360Z,20.41
2023-05-14T08:12:02.056Z,20.38
2023-05-14T08:14:28.608Z,20.91
2023-05-14T08:16:55.308Z,21.44
2023-05-14T08:19:23.167Z,22.01
2023-05-14T08:21:49.690Z,22.40
2023-05-14T08:24:16.265Z,22.43
2023-05-14T08:26:42.785Z,22.87
2023-05-14T08:29:10.698Z,23.32
2023-05-14T08:31:38.202Z,23.28
2023-05-14T08:34:04.683Z,23.03
2023-05-14T08:36:31.129Z,22.83
2023-05-14T08:39:06.291Z,22.88
2023-05-14T08:41:32.827Z,22.65
2023-05-14T08:44:13.612Z,22.56
2023-05-14T08:46:41.597Z,22.48
2023-05-14T08:49:17.760Z,22.45
2023-05-14T08:51:44.948Z,22.35
2023-05-14T08:54:13.016Z,22.43
2023-05-14T08:56:41.118Z,22.23
2023-05-14T08:59:07.656Z,22.02
2023-05-14T09:01:34.416Z,21.95
2023-05-14T09:04:02.077Z,21.85
2023-05-14T09:06:29.419Z,21.95
2023-05-14T09:08:56.386Z,21.71
2023-05-14T09:11:22.829Z,21.70
2023-05-14T09:13:49.269Z,21.92
2023-05-14T09:16:18.440Z,21.98
2023-05-14T09:18:45.539Z,22.07
2023-05-14T09:21:17.730Z,22.16
2023-05-14T09:23:45.091Z,22.42
2023-05-14T09:26:12.575Z,22.67
2023-05-14T09:28:43.616Z,22.60
2023-05-14T09:31:10.231Z,22.33
2023-05-14T09:33:36.919Z,22.23
2023-05-14T09:36:03.563Z,22.25
2023-05-14T09:38:33.484Z,22.55
2023-05-14T09:41:00.829Z,22.98
2023-05-14T09:43:27.327Z,22.90
2023-05-14T09:45:53.878Z,22.97
2023-05-14T09:48:20.847Z,23.36
2023-05-14T09:50:47.500Z,23.27
2023-05-14T09:53:14.649Z,23.09
2023-05-14T09:55:41.495Z,22.95
2023-05-14T09:58:07.968Z,22.78
2023-05-14T10:00:35.539Z,22.83
2023-05-14T10:03:06.656Z,23.00
2023-05-14T10:05:36.172Z,23.27
2023-05-14T10:08:09.313Z,23.15
2023-05-14T10:10:37.890Z,23.03
2023-05-14T10:13:12.272Z,23.14
2023-05-14T10:16:23.610Z,23.45
2023-05-14T10:18:55.767Z,24.12
2023-05-14T10:21:24.728Z,24.31
2023-05-14T10:23:52.260Z,24.35
2023-05-14T10:26:18.965Z,24.22
2023-05-14T10:28:45.827Z,24.05
2023-05-14T10:31:13.316Z,23.80
2023-05-14T10:33:48.307Z,24.05
2023-05-14T10:36:15.266Z,24.25
2023-05-14T10:38:41.730Z,24.17
2023-05-14T10:41:13.282Z,24.40
2023-05-14T10:43:41.667Z,24.34
2023-05-14T10:46:10.587Z,24.10
2023-05-14T10:48:39.737Z,23.85
2023-05-14T10:51:08.766Z,23.74
2023-05-14T10:53:41.365Z,23.52
2023-05-14T10:56:12.353Z,23.54
2023-05-14T10:58:41.680Z,23.52
2023-05-14T11:01:10.149Z,23.37
2023-05-14T11:03:45.372Z,23.22
2023-05-14T11:06:15.995Z,23.33
2023-05-14T11:08:42.778Z,23.44
2023-05-14T11:11:10.859Z,23.42
2023-05-14T11:13:37.937Z,23.42
2023-05-14T11:16:18.896Z,23.40
2023-05-14T11:18:53.782Z,23.13
2023-05-14T11:21:20.405Z,23.20
2023-05-14T11:23:47.058Z,23.26
2023-05-14T11:26:14.137Z,23.24
2023-05-14T11:28:41.396Z,23.07
2023-05-14T11:31:07.942Z,22.88
2023-05-14T11:33:36.042Z,22.84
2023-05-14T11:36:02.633Z,22.98
2023-05-14T11:38:29.103Z,23.26
2023-05-14T11:40:56.817Z,23.61
2023-05-14T11:43:23.891Z,23.74
2023-05-14T11:45:54.347Z,23.72
2023-05-14T11:48:22.236Z,23.61
2023-05-14T11:50:50.604Z,23.52
2023-05-14T11:53:25.441Z,23.61
2023-05-14T11:55:53.383Z,23.55
2023-05-14T11:58:20.591Z,23.56
2023-05-14T12:00:50.201Z,23.63
2023-05-14T12:03:18.390Z,23.72
2023-05-14T12:05:59.528Z,23.87
2023-05-14T12:08:30.674Z,23.85
2023-05-14T12:10:59.343Z,23.97
2023-05-14T12:13:32.987Z,24.17
2023-05-14T12:16:01.477Z,24.24
2023-05-14T12:18:29.958Z,24.14
2023-05-14T12:21:02.766Z,23.91
2023-05-14T12:23:30.911Z,23.79
2023-05-14T12:26:08.685Z,23.58
2023-05-14T12:28:38.388Z,23.59
2023-05-14T12:31:05.701Z,23.53
2023-05-14T12:33:32.366Z,23.53
2023-05-14T12:36:00.499Z,23.62
2023-05-14T12:38:32.065Z,23.87
2023-05-14T12:40:58.596Z,23.97
2023-05-14T12:43:25.105Z,24.05
2023-05-14T12:45:51.671Z,24.22
2023-05-14T12:48:18.129Z,24.25
2023-05-14T12:50:44.786Z,24.15
2023-05-14T12:53:11.327Z,24.21
2023-05-14T12:55:37.780Z,24.45
2023-05-14T12:58:04.276Z,24.54
2023-05-14T13:00:30.760Z,24.74
2023-05-14T13:02:57.499Z,24.89
2023-05-14T13:05:24.263Z,25.20
2023-05-14T13:07:52.563Z,25.19
2023-05-14T13:10:19.107Z,25.39
2023-05-14T13:12:45.660Z,25.36
2023-05-14T13:15:12.224Z,25.38
2023-05-14T13:17:39.026Z,25.28
2023-05-14T13:20:06.390Z,25.40
2023-05-14T13:22:32.826Z,25.33
2023-05-14T13:24:59.434Z,25.13
2023-05-14T13:27:25.992Z,25.04
2023-05-14T13:29:52.419Z,24.93
2023-05-14T13:32:18.985Z,24.85
2023-05-14T13:34:45.546Z,24.74
2023-05-14T13:37:12.196Z,24.69
2023-05-14T13:39:39.806Z,24.53
2023-05-14T13:42:07.514Z,24.45
2023-05-14T13:44:34.009Z,24.35
2023-05-14T13:47:00.478Z,24.33
2023-05-14T13:49:26.882Z,24.36
2023-05-14T13:51:53.366Z,24.34
2023-05-14T13:54:19.828Z,24.23
2023-05-14T13:56:46.239Z,23.90
2023-05-14T13:59:12.782Z,23.61
2023-05-14T14:01:39.331Z,23.42
2023-05-14T14:04:05.984Z,23.22
2023-05-14T14:06:32.532Z,22.97
2023-05-14T14:08:59.020Z,22.70
2023-05-14T14:11:25.731Z,22.42
2023-05-14T14:13:52.328Z,22.27
2023-05-14T14:16:19.121Z,22.18
2023-05-14T14:18:45.819Z,22.00
2023-05-14T14:21:12.318Z,21.84
2023-05-14T14:23:38.866Z,21.71
2023-05-14T14:26:05.329Z,21.58
2023-05-14T14:28:32.767Z,21.52
2023-05-14T14:30:59.232Z,21.41
2023-05-14T14:33:25.692Z,21.34
2023-05-14T14:35:52.144Z,21.37
2023-05-14T14:38:19.125Z,21.38
2023-05-14T14:40:45.735Z,21.42
2023-05-14T14:43:12.217Z,21.41
2023-05-14T14:45:38.906Z,21.36
2023-05-14T14:48:25.094Z,21.31
2023-05-14T14:50:52.685Z,21.36
2023-05-14T14:53:23.185Z,21.40
2023-05-14T14:55:50.664Z,21.29
2023-05-14T14:58:18.751Z,21.15
2023-05-14T15:00:45.477Z,21.03
2023-05-14T15:03:12.360Z,20.91
2023-05-14T15:05:39.065Z,20.83
2023-05-14T15:08:05.661Z,20.76
2023-05-14T15:10:32.844Z,20.70
2023-05-14T15:12:59.798Z,20.59
2023-05-14T15:15:26.512Z,20.51
2023-05-14T15:17:53.154Z,20.45
2023-05-14T15:20:19.790Z,20.33
2023-05-14T15:22:46.501Z,20.24
2023-05-14T15:25:12.992Z,20.19
2023-05-14T15:27:39.573Z,20.14
2023-05-14T15:30:07.262Z,20.07
2023-05-14T15:32:33.977Z,20.01
2023-05-14T15:35:00.575Z,19.97
2023-05-14T15:37:27.059Z,19.93
2023-05-14T15:39:53.583Z,19.90
2023-05-14T15:42:20.296Z,19.90
2023-05-14T15:44:46.705Z,19.89
2023-05-14T15:47:13.139Z,19.87
2023-05-14T15:49:39.594Z,19.86
2023-05-14T15:52:06.176Z,19.86
2023-05-14T15:54:32.912Z,19.86
2023-05-14T15:56:59.405Z,19.85
2023-05-14T15:59:25.968Z,19.84
2023-05-14T16:01:52.813Z,19.79
2023-05-14T16:04:19.387Z,19.71
2023-05-14T16:06:45.939Z,19.66
2023-05-14T16:09:12.443Z,19.63
2023-05-14T16:11:39.004Z,19.60
2023-05-14T16:14:05.553Z,19.56
2023-05-14T16:16:32.066Z,19.50
2023-05-14T16:18:59.834Z,19.43
2023-05-14T16:21:26.734Z,19.39
2023-05-14T16:23:53.343Z,19.33
2023-05-14T16:26:19.925Z,19.28
2023-05-14T16:28:46.582Z,19.23
2023-05-14T16:31:13.153Z,19.17
2023-05-14T16:33:39.729Z,19.11
2023-05-14T16:36:06.306Z,19.04
2023-05-14T16:38:32.762Z,18.96
2023-05-14T16:41:00.579Z,18.87
2023-05-14T16:43:27.206Z,18.79
2023-05-14T16:45:54.107Z,18.69
2023-05-14T16:48:20.714Z,18.61
2023-05-14T16:50:47.180Z,18.55
2023-05-14T16:53:13.707Z,18.49
2023-05-14T16:55:40.172Z,18.42
2023-05-14T16:58:06.802Z,18.36
2023-05-14T17:00:33.342Z,18.31
2023-05-14T17:03:00.014Z,18.26
2023-05-14T17:05:26.621Z,18.21
2023-05-14T17:07:53.212Z,18.17
2023-05-14T17:10:19.837Z,18.12
2023-05-14T17:12:46.624Z,18.07
2023-05-14T17:15:13.352Z,18.02
2023-05-14T17:17:39.988Z,17.98
2023-05-14T17:20:07.077Z,17.94
2023-05-14T17:22:34.208Z,17.90
2023-05-14T17:25:00.775Z,17.86
2023-05-14T17:27:27.414Z,17.83
2023-05-14T17:29:53.838Z,17.79
2023-05-14T17:32:20.497Z,17.77
2023-05-14T17:34:47.021Z,17.74
2023-05-14T17:37:13.485Z,17.71
2023-05-14T17:39:39.985Z,17.66
2023-05-14T17:42:07.094Z,17.63
2023-05-14T17:44:33.710Z,17.58
2023-05-14T17:47:00.697Z,17.53
2023-05-14T17:49:27.242Z,17.48
2023-05-14T17:51:53.653Z,17.44
2023-05-14T17:54:20.409Z,17.38
2023-05-14T17:56:47.147Z,17.33
2023-05-14T17:59:14.508Z,17.28
2023-05-14T18:01:40.976Z,17.23
2023-05-14T18:04:07.502Z,17.17
2023-05-14T18:06:34.577Z,17.11
2023-05-14T18:09:01.119Z,17.05
2023-05-14T18:11:27.858Z,17.00
2023-05-14T18:13:54.265Z,16.97
2023-05-14T18:16:21.197Z,16.94
2023-05-14T18:18:47.807Z,16.93
2023-05-14T18:21:14.578Z,16.91
2023-05-14T18:23:41.100Z,16.89
2023-05-14T18:26:07.824Z,16.86
2023-05-14T18:28:34.519Z,16.82
2023-05-14T18:31:01.869Z,16.77
2023-05-14T18:33:28.406Z,16.72
2023-05-14T18:35:54.896Z,16.67
2023-05-14T18:38:21.425Z,16.62
2023-05-14T18:40:48.449Z,16.56
2023-05-14T18:43:15.759Z,16.51
2023-05-14T18:45:46.196Z,16.46
2023-05-14T18:48:13.457Z,16.42
2023-05-14T18:50:40.004Z,16.38
2023-05-14T18:53:07.013Z,16.35
2023-05-14T18:55:35.267Z,16.31
2023-05-14T18:58:01.975Z,16.27
2023-05-14T19:00:28.620Z,16.23
2023-05-14T19:02:55.306Z,16.18
2023-05-14T19:05:22.204Z,16.14
2023-05-14T19:07:48.923Z,16.09
2023-05-14T19:10:15.468Z,16.03
2023-05-14T19:12:41.936Z,15.96
2023-05-14T19:15:08.881Z,15.87
2023-05-14T19:17:35.505Z,15.77
2023-05-14T19:20:02.281Z,15.68
2023-05-14T19:22:28.969Z,15.58
2023-05-14T19:24:55.479Z,15.49
2023-05-14T19:27:22.386Z,15.41
2023-05-14T19:29:48.939Z,15.33
2023-05-14T19:32:15.484Z,15.25
2023-05-14T19:34:41.984Z,15.15
2023-05-14T19:37:08.587Z,15.08
2023-05-14T19:39:34.994Z,15.01
2023-05-14T19:42:01.628Z,14.93
2023-05-14T19:44:28.081Z,14.85
2023-05-14T19:46:54.739Z,14.79
2023-05-14T19:49:21.341Z,14.75
2023-05-14T19:51:47.804Z,14.69
2023-05-14T19:54:14.432Z,14.63
2023-05-14T19:56:40.877Z,14.56
2023-05-14T19:59:07.432Z,14.50
2023-05-14T20:01:34.088Z,14.41
2023-05-14T20:04:00.762Z,14.35
2023-05-14T20:06:27.368Z,14.29
2023-05-14T20:08:53.895Z,14.24
2023-05-14T20:11:20.605Z,14.22
2023-05-14T20:13:48.003Z,14.20
2023-05-14T20:16:14.546Z,14.14
2023-05-14T20:18:40.989Z,14.10
2023-05-14T20:21:07.527Z,14.05
2023-05-14T20:23:34.292Z,14.01
2023-05-14T20:26:00.758Z,13.97
2023-05-14T20:28:27.499Z,13.95
2023-05-14T20:30:54.297Z,13.90
2023-05-14T20:33:21.153Z,13.86
2023-05-14T20:35:47.948Z,13.84
2023-05-14T20:38:14.507Z,13.84
2023-05-14T20:40:40.976Z,13.82
2023-05-14T20:43:07.631Z,13.79
2023-05-14T20:45:34.180Z,13.78
2023-05-14T20:48:00.750Z,13.79
2023-05-14T20:50:27.531Z,13.80
2023-05-14T20:52:55.276Z,13.78
2023-05-14T20:55:21.797Z,13.76
2023-05-14T20:57:48.304Z,13.74
2023-05-14T21:00:15.395Z,13.72
2023-05-14T21:02:42.009Z,13.69
2023-05-14T21:05:09.031Z,13.67
2023-05-14T21:07:35.468Z,13.65
2023-05-14T21:10:02.641Z,13.64
2023-05-14T21:12:29.171Z,13.61
2023-05-14T21:14:55.637Z,13.58
2023-05-14T21:17:22.268Z,13.56
2023-05-14T21:19:48.776Z,13.53
2023-05-14T21:22:15.308Z,13.50
2023-05-14T21:24:41.768Z,13.49
2023-05-14T21:27:08.479Z,13.48
2023-05-14T21:29:34.875Z,13.48
2023-05-14T21:32:01.416Z,13.51
2023-05-14T21:34:29.125Z,13.54
2023-05-14T21:36:56.511Z,13.59
2023-05-14T21:39:22.976Z,13.64
2023-05-14T21:41:49.693Z,13.68
2023-05-14T21:44:16.378Z,13.72
2023-05-14T21:46:42.926Z,13.73
2023-05-14T21:49:09.477Z,13.74
2023-05-14T21:51:36.019Z,13.73
2023-05-14T21:54:02.664Z,13.72
2023-05-14T21:56:29.131Z,13.70
2023-05-14T21:58:56.164Z,13.70
2023-05-14T22:01:23.064Z,13.70
2023-05-14T22:03:49.723Z,13.69
2023-05-14T22:06:16.806Z,13.68
2023-05-14T22:08:43.252Z,13.67
2023-05-14T22:11:09.711Z,13.67
2023-05-14T22:13:36.161Z,13.67
2023-05-14T22:16:12.102Z,13.68
2023-05-14T22:18:39.270Z,13.70
2023-05-14T22:21:06.085Z,13.71
2023-05-14T22:23:32.572Z,13.73
2023-05-14T22:25:59.071Z,13.74
2023-05-14T22:28:25.570Z,13.76
2023-05-14T22:30:52.449Z,13.77
2023-05-14T22:33:19.284Z,13.78
2023-05-14T22:35:46.277Z,13.80
2023-05-14T22:38:13.556Z,13.81
2023-05-14T22:40:40.153Z,13.82
2023-05-14T22:43:06.595Z,13.82
2023-05-14T22:45:33.147Z,13.83
2023-05-14T22:47:59.905Z,13.82
2023-05-14T22:50:26.549Z,13.81
2023-05-14T22:52:52.962Z,13.80
2023-05-14T22:55:19.543Z,13.79
2023-05-14T22:57:46.080Z,13.77
2023-05-14T23:00:13.454Z,13.76
2023-05-14T23:02:40.334Z,13.76
2023-05-14T23:05:08.664Z,13.74
2023-05-14T23:07:35.578Z,13.73
2023-05-14T23:10:02.202Z,13.70
2023-05-14T23:12:28.764Z,13.67
2023-05-14T23:14:55.552Z,13.66
2023-05-14T23:17:22.185Z,13.64
2023-05-14T23:19:48.936Z,13.62
2023-05-14T23:22:15.673Z,13.61
2023-05-14T23:24:42.124Z,13.59
2023-05-14T23:27:10.787Z,13.57
2023-05-14T23:29:37.577Z,13.55
2023-05-14T23:32:04.399Z,13.53
2023-05-14T23:34:30.993Z,13.51
2023-05-14T23:36:57.464Z,13.48
2023-05-14T23:39:24.112Z,13.48
2023-05-14T23:41:50.875Z,13.46
2023-05-14T23:44:17.424Z,13.44
2023-05-14T23:46:44.145Z,13.42
2023-05-14T23:49:11.102Z,13.41
2023-05-14T23:51:37.674Z,13.39
2023-05-14T23:54:04.321Z,13.38
2023-05-14T23:56:30.837Z,13.36
2023-05-14T23:58:57.506Z,13.34
